• Join FlightAware (Why Join?)
  • Login
  • US Flag 
02:10AM EDT


 

Airport Tracker/Info


-or-


 

Live Flight TrackerFlight Track Log ✈ AMX536 ✈ 28-Jun-2013 ✈ MMMD / MID - MMMX / MEX

Flight Track Log - Related Links

Times and Time Zones

All times are in EDT time to prevent confusion due to time zone crossing. See the AMX536 flight status page for this flight to view local times or setup timezone preferences in your user account.

Time Position Orientation Groundspeed Altitude Reporting Facility
EDT Latitude Longitude Course Direction KTS MPH feet Rate Location/Type
10:37AM 20.2492 -94.3890 262° West  Level Estimated
10:38AM 20.2350 -94.4778 260° West  Level Estimated
10:39AM 20.2208 -94.5667 260° West  Level Estimated
10:40AM 20.2065 -94.6555 260° West  Level Estimated
10:41AM 20.1921 -94.7443 260° West  Level Estimated
10:42AM 20.1777 -94.8331 260° West  Level Estimated
10:43AM 20.1633 -94.9218 260° West  Level Estimated
10:44AM 20.1488 -95.0106 260° West  Level Estimated
10:45AM 20.1343 -95.0993 260° West  Level Estimated
10:46AM 20.1198 -95.1880 260° West  Level Estimated
10:47AM 20.1052 -95.2767 260° West  Level Estimated
10:48AM 20.0905 -95.3654 260° West  Level Estimated
10:49AM 20.0758 -95.4541 260° West  Level Estimated
10:50AM 20.0611 -95.5427 260° West  Level Estimated
10:51AM 20.0463 -95.6314 260° West  Level Estimated
10:52AM 20.0315 -95.7200 260° West  Level Estimated
10:53AM 20.0166 -95.8086 260° West  Level Estimated
10:54AM 20.0017 -95.8972 260° West  Level Estimated
10:55AM 19.9867 -95.9858 260° West  Level Estimated
10:56AM 19.9717 -96.0743 260° West  Level Estimated
10:57AM 19.9567 -96.1628 260° West  Level Estimated
10:58AM 19.9416 -96.2514 260° West  Level Estimated
10:59AM 19.9265 -96.3399 260° West  Level Estimated
11:00AM 19.9113 -96.4284 260° West  Level Estimated
11:01AM 19.8960 -96.5168 260° West  Level Estimated
11:02AM 19.8808 -96.6053 260° West  Level Estimated
11:03AM 19.8655 -96.6937 260° West  Level Estimated
11:04AM 19.8501 -96.7821 260° West  Level Estimated
11:05AM 19.8347 -96.8705 260° West  Level Estimated
11:06AM 19.8193 -96.9589 259° West  Level Estimated
11:07AM 19.8038 -97.0473 259° West  Level Estimated
11:08AM 19.7883 -97.1356 259° West  Level Estimated
11:09AM 19.7727 -97.2239 259° West  Level Estimated
11:10AM 19.7571 -97.3122 259° West  Level Estimated
11:11AM 19.7414 -97.4006 259° West  Level Estimated
11:12AM 19.7257 -97.4888 259° West  Level Estimated
11:13AM 19.7100 -97.5771 259° West  Level Estimated
11:14AM 19.6942 -97.6653 259° West  Level Estimated
11:15AM 19.6784 -97.7536 259° West  Level Estimated
11:16AM 19.6625 -97.8418 259° West  Level Estimated
11:17AM 19.6466 -97.9300 259° West  Level Estimated
11:18AM 19.6306 -98.0181 259° West  Level Estimated
11:19AM 19.6146 -98.1063 259° West  Level Estimated
11:20AM 19.5986 -98.1944 259° West  Level Estimated
11:21AM 19.5825 -98.2825 259° West  Level Estimated
11:22AM 19.5664 -98.3707 259° West  Level Estimated
11:23AM 19.5502 -98.4587 259° West  Level Estimated
11:24AM 19.5340 -98.5468 259° West  Level Estimated
11:25AM 19.5177 -98.6349 259° West  Level Estimated
11:26AM 19.5014 -98.7229 259° West  Level Estimated
11:27AM 19.4851 -98.8109 259° West  Level Estimated
11:28AM 19.4687 -98.8989 259° West  Level Estimated
11:29AM 19.4523 -98.9869 259° West  Level Estimated
11:30AM 19.4363 -99.0721 259° West  Level Estimated
11:31AM 19.4363 -99.0721 43° Northeast  Level Estimated
11:32AM 19.4363 -99.0721 43° Northeast  Level Estimated
11:33AM 19.4363 -99.0721 43° Northeast  Level Estimated
11:34AM 19.4363 -99.0721 43° Northeast  Level Estimated
11:35AM 19.4363 -99.0721 43° Northeast  Level Estimated
11:36AM 19.4363 -99.0721 43° Northeast  Level Estimated
11:37AM 19.4363 -99.0721 43° Northeast  Level Estimated
11:38AM 19.4363 -99.0721 43° Northeast  Level Estimated
11:39AM 19.4363 -99.0721 43° Northeast  Level Estimated
11:40AM 19.4363 -99.0721 43° Northeast  Level Estimated
11:41AM 19.4363 -99.0721 43° Northeast  Level Estimated
11:42AM 19.4363 -99.0721 43° Northeast  Level Estimated
11:43AM 19.4363 -99.0721 43° Northeast  Level Estimated
11:44AM 19.4363 -99.0721 43° Northeast  Level Estimated
11:45AM 19.4363 -99.0721 43° Northeast  Level Estimated
11:46AM 19.4363 -99.0721 43° Northeast  Level Estimated